createdAt,value
2022-09-15T00:00:32.630Z,19.37
2022-09-15T00:02:59.331Z,19.29
2022-09-15T00:05:25.978Z,19.26
2022-09-15T00:07:52.589Z,19.17
2022-09-15T00:10:19.376Z,19.11
2022-09-15T00:12:46.026Z,19.32
2022-09-15T00:15:14.904Z,19.35
2022-09-15T00:17:43.234Z,19.37
2022-09-15T00:20:10.863Z,19.25
2022-09-15T00:22:38.148Z,19.35
2022-09-15T00:25:05.564Z,19.40
2022-09-15T00:27:33.931Z,19.48
2022-09-15T00:30:01.229Z,19.63
2022-09-15T00:32:29.743Z,19.59
2022-09-15T00:34:56.321Z,19.61
2022-09-15T00:37:23.327Z,19.71
2022-09-15T00:39:49.993Z,19.68
2022-09-15T00:42:18.786Z,19.62
2022-09-15T00:44:55.085Z,19.68
2022-09-15T00:47:27.281Z,19.62
2022-09-15T00:50:01.177Z,19.58
2022-09-15T00:52:32.215Z,19.52
2022-09-15T00:55:17.344Z,19.44
2022-09-15T00:57:58.723Z,19.40
2022-09-15T01:00:27.977Z,19.34
2022-09-15T01:02:55.966Z,19.31
2022-09-15T01:05:30.693Z,19.30
2022-09-15T01:08:04.574Z,19.30
2022-09-15T01:10:36.379Z,19.21
2022-09-15T01:13:06.758Z,19.21
2022-09-15T01:15:47.771Z,19.10
2022-09-15T01:18:24.769Z,19.02
2022-09-15T01:20:57.539Z,18.96
2022-09-15T01:23:52.018Z,19.00
2022-09-15T01:26:43.686Z,18.94
2022-09-15T01:29:24.422Z,19.14
2022-09-15T01:32:12.971Z,19.06
2022-09-15T01:34:51.947Z,19.00
2022-09-15T01:37:24.815Z,18.90
2022-09-15T01:39:54.152Z,18.91
2022-09-15T01:42:23.231Z,18.90
2022-09-15T01:44:55.833Z,18.82
2022-09-15T01:47:22.958Z,18.77
2022-09-15T01:50:10.175Z,18.71
2022-09-15T01:52:40.130Z,18.72
2022-09-15T01:55:16.050Z,18.63
2022-09-15T01:57:44.979Z,18.58
2022-09-15T02:00:12.317Z,18.56
2022-09-15T02:02:48.692Z,18.63
2022-09-15T02:05:39.627Z,18.56
2022-09-15T02:08:25.560Z,18.46
2022-09-15T02:11:12.877Z,18.36
2022-09-15T02:13:48.695Z,18.28
2022-09-15T02:16:22.060Z,18.22
2022-09-15T02:19:09.732Z,18.20
2022-09-15T02:21:47.910Z,18.17
2022-09-15T02:24:19.275Z,18.17
2022-09-15T02:26:49.514Z,18.16
2022-09-15T02:29:19.790Z,18.14
2022-09-15T02:31:48.841Z,18.24
2022-09-15T02:34:24.124Z,18.11
2022-09-15T02:36:53.662Z,18.07
2022-09-15T02:39:23.474Z,18.03
2022-09-15T02:41:50.154Z,18.00
2022-09-15T02:44:17.040Z,18.04
2022-09-15T02:46:44.115Z,17.92
2022-09-15T02:49:14.198Z,17.97
2022-09-15T02:51:45.100Z,17.92
2022-09-15T02:54:19.344Z,17.87
2022-09-15T02:56:49.994Z,17.83
2022-09-15T02:59:18.177Z,17.91
2022-09-15T03:01:45.019Z,17.95
2022-09-15T03:04:11.752Z,17.92
2022-09-15T03:06:38.519Z,17.92
2022-09-15T03:09:07.884Z,17.83
2022-09-15T03:11:35.663Z,17.89
2022-09-15T03:14:05.588Z,17.76
2022-09-15T03:16:34.571Z,17.69
2022-09-15T03:19:01.365Z,17.63
2022-09-15T03:21:29.643Z,17.54
2022-09-15T03:23:57.683Z,17.42
2022-09-15T03:26:24.450Z,17.33
2022-09-15T03:28:51.219Z,17.19
2022-09-15T03:31:17.898Z,17.15
2022-09-15T03:33:44.555Z,17.14
2022-09-15T03:36:11.227Z,17.17
2022-09-15T03:38:37.841Z,17.17
2022-09-15T03:41:11.052Z,17.21
2022-09-15T03:43:39.120Z,17.21
2022-09-15T03:46:09.001Z,17.20
2022-09-15T03:48:36.683Z,17.16
2022-09-15T03:51:04.688Z,17.14
2022-09-15T03:53:35.855Z,17.17
2022-09-15T03:56:21.629Z,17.17
2022-09-15T03:58:52.007Z,17.18
2022-09-15T04:01:20.010Z,17.21
2022-09-15T04:03:50.820Z,17.22
2022-09-15T04:06:19.667Z,17.31
2022-09-15T04:08:46.396Z,17.32
2022-09-15T04:11:13.896Z,17.37
2022-09-15T04:13:42.017Z,17.35
2022-09-15T04:16:11.816Z,17.31
2022-09-15T04:18:38.543Z,17.35
2022-09-15T04:21:07.767Z,17.42
2022-09-15T04:23:35.150Z,17.39
2022-09-15T04:26:04.802Z,17.30
2022-09-15T04:28:36.985Z,17.31
2022-09-15T04:31:06.599Z,17.28
2022-09-15T04:33:33.963Z,17.20
2022-09-15T04:36:07.115Z,17.27
2022-09-15T04:38:33.802Z,17.23
2022-09-15T04:41:00.475Z,17.23
2022-09-15T04:43:27.180Z,17.25
2022-09-15T04:45:54.850Z,17.23
2022-09-15T04:48:22.848Z,17.21
2022-09-15T04:50:49.830Z,17.16
2022-09-15T04:53:16.843Z,17.26
2022-09-15T04:55:43.567Z,17.32
2022-09-15T04:58:10.416Z,17.36
2022-09-15T05:00:45.742Z,17.36
2022-09-15T05:03:14.086Z,17.37
2022-09-15T05:05:41.355Z,17.41
2022-09-15T05:08:08.439Z,17.39
2022-09-15T05:10:35.254Z,17.41
2022-09-15T05:13:02.059Z,17.41
2022-09-15T05:15:28.630Z,17.45
2022-09-15T05:17:55.222Z,17.46
2022-09-15T05:20:22.493Z,17.47
2022-09-15T05:22:49.176Z,17.50
2022-09-15T05:25:15.854Z,17.55
2022-09-15T05:27:42.666Z,17.57
2022-09-15T05:30:35.534Z,17.61
2022-09-15T05:32:56.722Z,17.69
2022-09-15T05:35:23.696Z,17.72
2022-09-15T05:37:50.384Z,17.69
2022-09-15T05:40:17.262Z,17.74
2022-09-15T05:42:43.910Z,17.83
2022-09-15T05:45:11.144Z,17.89
2022-09-15T05:47:37.788Z,17.94
2022-09-15T05:50:04.627Z,17.89
2022-09-15T05:52:31.245Z,17.89
2022-09-15T05:54:59.347Z,17.88
2022-09-15T05:57:26.114Z,17.95
2022-09-15T05:59:52.753Z,17.97
2022-09-15T06:02:19.455Z,17.98
2022-09-15T06:04:46.082Z,18.04
2022-09-15T06:07:13.132Z,18.05
2022-09-15T06:09:40.003Z,18.03
2022-09-15T06:12:06.805Z,18.13
2022-09-15T06:14:33.546Z,18.10
2022-09-15T06:17:00.147Z,18.10
2022-09-15T06:19:26.753Z,18.16
2022-09-15T06:21:53.949Z,18.33
2022-09-15T06:24:20.564Z,18.37
2022-09-15T06:26:47.296Z,18.41
2022-09-15T06:29:14.016Z,18.57
2022-09-15T06:31:40.651Z,18.71
2022-09-15T06:34:08.647Z,18.87
2022-09-15T06:36:36.949Z,18.88
2022-09-15T06:39:03.676Z,19.07
2022-09-15T06:41:42.616Z,19.34
2022-09-15T06:44:21.336Z,19.51
2022-09-15T06:46:48.670Z,19.94
2022-09-15T06:49:15.723Z,20.11
2022-09-15T06:51:42.364Z,20.33
2022-09-15T06:54:08.997Z,20.53
2022-09-15T06:56:38.060Z,20.50
2022-09-15T06:59:05.236Z,20.52
2022-09-15T07:01:32.699Z,20.60
2022-09-15T07:04:01.122Z,20.99
2022-09-15T07:06:29.999Z,22.14
2022-09-15T07:08:58.474Z,23.08
2022-09-15T07:11:26.006Z,23.17
2022-09-15T07:13:52.918Z,23.53
2022-09-15T07:16:20.991Z,23.61
2022-09-15T07:18:53.072Z,25.28
2022-09-15T07:21:21.513Z,25.58
2022-09-15T07:23:48.958Z,26.11
2022-09-15T07:26:20.039Z,26.33
2022-09-15T07:28:56.885Z,25.19
2022-09-15T07:31:26.626Z,24.99
2022-09-15T07:33:53.499Z,24.90
2022-09-15T07:36:20.883Z,24.31
2022-09-15T07:38:49.746Z,24.86
2022-09-15T07:41:21.685Z,24.48
2022-09-15T07:43:50.040Z,25.51
2022-09-15T07:46:18.666Z,26.66
2022-09-15T07:48:50.634Z,26.69
2022-09-15T07:51:18.099Z,26.88
2022-09-15T07:53:47.433Z,27.76
2022-09-15T07:56:15.461Z,27.79
2022-09-15T07:58:42.137Z,28.05
2022-09-15T08:01:14.776Z,28.11
2022-09-15T08:03:50.828Z,29.37
2022-09-15T08:06:22.861Z,28.35
2022-09-15T08:08:56.272Z,28.17
2022-09-15T08:11:23.276Z,29.34
2022-09-15T08:13:52.551Z,30.22
2022-09-15T08:16:24.484Z,30.69
2022-09-15T08:18:55.788Z,31.66
2022-09-15T08:21:23.606Z,30.73
2022-09-15T08:23:52.620Z,29.78
2022-09-15T08:26:19.780Z,29.51
2022-09-15T08:28:46.612Z,29.50
2022-09-15T08:31:14.502Z,29.24
2022-09-15T08:33:45.448Z,28.69
2022-09-15T08:36:12.791Z,27.94
2022-09-15T08:38:40.762Z,27.75
2022-09-15T08:41:25.722Z,26.76
2022-09-15T08:44:22.597Z,26.20
2022-09-15T08:46:54.278Z,25.96
2022-09-15T08:49:51.657Z,25.75
2022-09-15T08:52:26.677Z,25.39
2022-09-15T08:54:57.226Z,25.19
2022-09-15T08:57:25.894Z,25.13
2022-09-15T08:59:55.077Z,24.70
2022-09-15T09:02:46.741Z,24.48
2022-09-15T09:05:21.482Z,24.25
2022-09-15T09:08:32.418Z,24.26
2022-09-15T09:11:01.824Z,24.12
2022-09-15T09:13:37.774Z,23.85
2022-09-15T09:16:23.152Z,23.63
2022-09-15T09:19:21.010Z,23.60
2022-09-15T09:21:55.670Z,23.69
2022-09-15T09:24:39.256Z,23.75
2022-09-15T09:27:13.023Z,24.08
2022-09-15T09:29:44.885Z,24.51
2022-09-15T09:32:26.510Z,24.56
2022-09-15T09:35:24.830Z,24.43
2022-09-15T09:37:52.861Z,24.44
2022-09-15T09:40:20.025Z,24.23
2022-09-15T09:42:47.281Z,24.31
2022-09-15T09:45:15.794Z,24.29
2022-09-15T09:47:42.966Z,24.13
2022-09-15T09:50:32.022Z,24.03
2022-09-15T09:52:59.408Z,23.95
2022-09-15T09:57:54.405Z,23.66
2022-09-15T10:00:35.824Z,23.43
2022-09-15T10:03:17.918Z,23.12
2022-09-15T10:05:46.047Z,22.81
2022-09-15T10:08:18.412Z,22.48
2022-09-15T10:10:54.598Z,22.19
2022-09-15T10:13:22.693Z,22.07
2022-09-15T10:15:59.581Z,21.94
2022-09-15T10:18:37.098Z,21.92
2022-09-15T10:21:07.426Z,21.91
2022-09-15T10:23:34.443Z,21.96
2022-09-15T10:26:16.327Z,21.86
2022-09-15T10:28:44.043Z,21.79
2022-09-15T10:31:16.011Z,21.84
2022-09-15T10:33:45.078Z,21.70
2022-09-15T10:36:20.502Z,21.68
2022-09-15T10:38:49.798Z,21.66
2022-09-15T10:41:22.654Z,21.56
2022-09-15T10:44:10.900Z,21.60
2022-09-15T10:46:55.492Z,21.35
2022-09-15T10:49:43.656Z,21.05
2022-09-15T10:52:29.020Z,21.02
2022-09-15T10:55:42.558Z,20.91
2022-09-15T10:58:16.177Z,20.42
2022-09-15T11:00:59.776Z,20.35
2022-09-15T11:03:47.672Z,20.20
2022-09-15T11:06:29.993Z,20.22
2022-09-15T11:08:59.362Z,20.21
2022-09-15T11:11:48.540Z,19.97
2022-09-15T11:14:34.301Z,19.66
2022-09-15T11:17:19.542Z,19.12
2022-09-15T11:20:04.105Z,19.05
2022-09-15T11:22:43.320Z,18.60
2022-09-15T11:25:11.772Z,18.39
2022-09-15T11:27:49.318Z,18.30
2022-09-15T11:30:20.101Z,18.18
2022-09-15T11:33:13.192Z,18.14
2022-09-15T11:35:46.396Z,18.19
2022-09-15T11:38:30.881Z,18.20
2022-09-15T11:41:19.050Z,18.39
2022-09-15T11:44:06.197Z,18.63
2022-09-15T11:47:10.077Z,18.95
2022-09-15T11:49:48.817Z,19.67
2022-09-15T11:52:37.872Z,20.24
2022-09-15T11:55:15.661Z,20.60
2022-09-15T11:57:52.190Z,23.05
2022-09-15T12:00:20.445Z,24.60
2022-09-15T12:03:22.259Z,26.37
2022-09-15T12:06:00.091Z,25.82
2022-09-15T12:09:06.189Z,26.84
2022-09-15T12:11:42.316Z,26.99
2022-09-15T12:14:16.489Z,25.69
2022-09-15T12:16:44.673Z,25.27
2022-09-15T12:19:23.173Z,24.30
2022-09-15T12:21:50.098Z,24.49
2022-09-15T12:24:19.565Z,23.84
2022-09-15T12:26:46.743Z,23.07
2022-09-15T12:29:22.128Z,22.31
2022-09-15T12:31:48.830Z,21.81
2022-09-15T12:34:36.603Z,21.29
2022-09-15T12:37:15.524Z,20.88
2022-09-15T12:39:43.470Z,20.65
2022-09-15T12:42:31.245Z,20.42
2022-09-15T12:45:00.179Z,20.31
2022-09-15T12:47:49.080Z,20.16
2022-09-15T12:50:15.718Z,20.27
2022-09-15T12:53:02.854Z,20.40
2022-09-15T12:55:36.325Z,20.83
2022-09-15T12:58:18.565Z,21.07
2022-09-15T13:01:13.822Z,22.77
2022-09-15T13:03:41.251Z,22.93
2022-09-15T13:06:10.643Z,22.60
2022-09-15T13:08:37.220Z,22.05
2022-09-15T13:11:15.054Z,21.82
2022-09-15T13:13:48.229Z,21.48
2022-09-15T13:16:33.614Z,21.11
2022-09-15T13:19:11.945Z,20.86
2022-09-15T13:21:43.919Z,20.74
2022-09-15T13:24:35.950Z,20.62
2022-09-15T13:27:04.921Z,20.32
2022-09-15T13:29:33.106Z,20.26
2022-09-15T13:32:31.735Z,20.07
2022-09-15T13:35:19.935Z,19.76
2022-09-15T13:38:22.093Z,19.74
2022-09-15T13:41:13.697Z,19.54
2022-09-15T13:43:58.515Z,19.53
2022-09-15T13:46:29.091Z,19.36
2022-09-15T13:49:17.974Z,19.38
2022-09-15T13:51:53.396Z,19.61
2022-09-15T13:54:20.299Z,19.47
2022-09-15T13:56:53.140Z,19.52
2022-09-15T13:59:25.446Z,19.63
2022-09-15T14:01:53.936Z,19.57
2022-09-15T14:04:28.349Z,19.50
2022-09-15T14:07:00.212Z,19.56
2022-09-15T14:09:33.334Z,19.49
2022-09-15T14:12:07.751Z,19.54
2022-09-15T14:14:58.190Z,19.46
2022-09-15T14:17:30.152Z,19.43
2022-09-15T14:19:59.118Z,19.57
2022-09-15T14:22:31.870Z,19.53
2022-09-15T14:25:07.037Z,19.63
2022-09-15T14:27:36.082Z,19.50
2022-09-15T14:30:07.337Z,19.35
2022-09-15T14:32:38.985Z,19.32
2022-09-15T14:35:09.208Z,19.16
2022-09-15T14:37:35.890Z,19.11
2022-09-15T14:40:19.274Z,19.05
2022-09-15T14:42:45.989Z,19.11
2022-09-15T14:48:07.382Z,18.98
2022-09-15T14:50:34.319Z,19.01
2022-09-15T14:53:03.991Z,19.04
2022-09-15T14:55:37.572Z,18.99
2022-09-15T14:58:12.864Z,18.98
2022-09-15T15:00:48.714Z,19.01
2022-09-15T15:03:42.449Z,19.03
2022-09-15T15:06:29.645Z,18.81
2022-09-15T15:09:30.270Z,18.73
2022-09-15T15:12:00.843Z,18.69
2022-09-15T15:14:28.385Z,18.66
2022-09-15T15:17:02.177Z,18.61
2022-09-15T15:19:40.290Z,18.60
2022-09-15T15:22:27.546Z,18.46
2022-09-15T15:24:54.918Z,18.42
2022-09-15T15:27:33.426Z,18.41
2022-09-15T15:30:26.624Z,18.40
2022-09-15T15:32:54.072Z,18.38
2022-09-15T15:35:21.247Z,18.25
2022-09-15T15:37:48.187Z,18.20
2022-09-15T15:40:18.478Z,18.15
2022-09-15T15:42:57.700Z,18.07
2022-09-15T15:45:30.593Z,18.02
2022-09-15T15:47:57.490Z,17.99
2022-09-15T15:50:27.530Z,17.95
2022-09-15T15:52:54.615Z,17.91
2022-09-15T15:55:23.578Z,17.93
2022-09-15T15:57:53.170Z,17.93
2022-09-15T16:00:51.189Z,17.81
2022-09-15T16:03:19.491Z,17.68
2022-09-15T16:05:51.632Z,17.69
2022-09-15T16:08:21.107Z,17.65
2022-09-15T16:10:49.454Z,17.62
2022-09-15T16:13:18.858Z,17.57
2022-09-15T16:15:46.363Z,17.54
2022-09-15T16:18:13.538Z,17.59
2022-09-15T16:20:41.291Z,17.58
2022-09-15T16:23:13.887Z,17.52
2022-09-15T16:25:52.395Z,17.43
2022-09-15T16:28:19.501Z,17.39
2022-09-15T16:30:46.724Z,17.42
2022-09-15T16:33:15.527Z,17.37
2022-09-15T16:35:51.043Z,17.30
2022-09-15T16:38:19.761Z,17.28
2022-09-15T16:40:51.133Z,17.26
2022-09-15T16:43:20.878Z,17.21
2022-09-15T16:45:49.502Z,17.14
2022-09-15T16:48:16.383Z,17.13
2022-09-15T16:51:02.154Z,17.14
2022-09-15T16:53:31.029Z,17.19
2022-09-15T16:55:57.785Z,17.20
2022-09-15T16:58:24.447Z,17.17
2022-09-15T17:00:52.639Z,17.15
2022-09-15T17:03:21.688Z,17.14
2022-09-15T17:05:50.770Z,17.10
2022-09-15T17:08:22.770Z,17.16
2022-09-15T17:10:50.247Z,17.14
2022-09-15T17:13:19.937Z,17.04
2022-09-15T17:15:47.278Z,17.06
2022-09-15T17:18:15.417Z,17.06
2022-09-15T17:20:46.854Z,17.03
2022-09-15T17:23:35.314Z,17.05
2022-09-15T17:26:10.573Z,17.04
2022-09-15T17:28:37.615Z,17.02
2022-09-15T17:31:09.780Z,17.02
2022-09-15T17:33:36.526Z,17.00
2022-09-15T17:36:03.741Z,17.03
2022-09-15T17:38:31.531Z,17.00
2022-09-15T17:40:58.603Z,16.97
2022-09-15T17:43:27.835Z,16.95
2022-09-15T17:45:55.334Z,16.95
2022-09-15T17:48:22.847Z,16.99
2022-09-15T17:50:50.179Z,17.00
2022-09-15T17:53:26.672Z,16.98
2022-09-15T17:55:54.938Z,16.99
2022-09-15T17:58:24.006Z,16.97
2022-09-15T18:00:50.817Z,16.95
2022-09-15T18:03:26.883Z,16.97
2022-09-15T18:05:59.178Z,16.97
2022-09-15T18:08:26.773Z,16.96
2022-09-15T18:10:53.549Z,16.96
2022-09-15T18:13:22.670Z,16.89
2022-09-15T18:15:50.035Z,16.97
2022-09-15T18:18:24.778Z,16.95
2022-09-15T18:20:53.314Z,17.00
2022-09-15T18:23:22.870Z,16.99
2022-09-15T18:25:50.387Z,17.02
2022-09-15T18:28:17.899Z,16.94
2022-09-15T18:30:46.911Z,16.86
2022-09-15T18:33:14.833Z,16.88
2022-09-15T18:35:41.724Z,16.79
2022-09-15T18:38:08.983Z,16.78
2022-09-15T18:40:36.607Z,16.74
2022-09-15T18:43:03.502Z,16.65
2022-09-15T18:45:30.165Z,16.63
2022-09-15T18:47:57.015Z,16.62
2022-09-15T18:50:24.353Z,16.64
2022-09-15T18:52:51.023Z,16.65
2022-09-15T18:55:19.719Z,16.67
2022-09-15T18:57:47.364Z,16.65
2022-09-15T19:00:19.510Z,16.59
2022-09-15T19:02:46.549Z,16.57
2022-09-15T19:05:15.611Z,16.61
2022-09-15T19:07:44.853Z,16.64
2022-09-15T19:10:14.130Z,16.63
2022-09-15T19:12:41.019Z,16.65
2022-09-15T19:15:11.044Z,16.65
2022-09-15T19:17:39.416Z,16.59
2022-09-15T19:20:07.693Z,16.58
2022-09-15T19:22:35.339Z,16.56
2022-09-15T19:25:02.227Z,16.55
2022-09-15T19:27:28.970Z,16.48
2022-09-15T19:29:55.628Z,16.44
2022-09-15T19:32:22.900Z,16.40
2022-09-15T19:34:49.907Z,16.38
2022-09-15T19:37:19.061Z,16.36
2022-09-15T19:39:47.052Z,16.42
2022-09-15T19:44:42.437Z,16.31
2022-09-15T19:47:09.481Z,16.26
2022-09-15T19:49:36.155Z,16.21
2022-09-15T19:52:02.886Z,16.20
2022-09-15T19:54:30.557Z,16.25
2022-09-15T19:56:57.320Z,16.27
2022-09-15T19:59:28.730Z,16.40
2022-09-15T20:01:57.663Z,16.38
2022-09-15T20:04:24.366Z,16.42
2022-09-15T20:06:51.039Z,16.46
2022-09-15T20:09:17.735Z,16.44
2022-09-15T20:11:44.993Z,16.45
2022-09-15T20:14:11.792Z,16.44
2022-09-15T20:16:38.474Z,16.46
2022-09-15T20:19:05.703Z,16.48
2022-09-15T20:21:51.386Z,16.49
2022-09-15T20:24:19.587Z,16.51
2022-09-15T20:26:46.429Z,16.52
2022-09-15T20:29:13.285Z,16.58
2022-09-15T20:31:40.100Z,16.61
2022-09-15T20:34:07.231Z,16.60
2022-09-15T20:36:36.728Z,16.63
2022-09-15T20:39:05.838Z,16.63
2022-09-15T20:41:32.575Z,16.80
2022-09-15T20:43:59.699Z,16.90
2022-09-15T20:46:26.658Z,16.91
2022-09-15T20:48:53.458Z,16.84
2022-09-15T20:51:22.859Z,16.82
2022-09-15T20:53:51.562Z,16.76
2022-09-15T20:56:21.169Z,16.76
2022-09-15T20:58:47.845Z,16.77
2022-09-15T21:01:20.245Z,16.73
2022-09-15T21:03:47.870Z,16.77
2022-09-15T21:06:19.719Z,16.70
2022-09-15T21:08:47.642Z,16.61
2022-09-15T21:11:16.263Z,16.54
2022-09-15T21:13:43.593Z,16.48
2022-09-15T21:16:16.051Z,16.42
2022-09-15T21:18:44.729Z,16.37
2022-09-15T21:21:14.646Z,16.32
2022-09-15T21:23:46.885Z,16.26
2022-09-15T21:26:16.263Z,16.19
2022-09-15T21:28:45.982Z,16.14
2022-09-15T21:31:18.124Z,16.07
2022-09-15T21:33:46.532Z,16.09
2022-09-15T21:36:20.376Z,16.05
2022-09-15T21:38:47.425Z,15.99
2022-09-15T21:41:16.911Z,15.96
2022-09-15T21:43:46.509Z,15.91
2022-09-15T21:46:18.354Z,15.95
2022-09-15T21:48:49.269Z,16.00
2022-09-15T21:51:24.307Z,16.02
2022-09-15T21:53:53.767Z,16.10
2022-09-15T21:56:24.259Z,16.16
2022-09-15T21:58:50.933Z,16.19
2022-09-15T22:01:19.789Z,16.25
2022-09-15T22:03:52.023Z,16.26
2022-09-15T22:06:20.959Z,16.32
2022-09-15T22:08:48.293Z,16.35
2022-09-15T22:11:15.076Z,16.37
2022-09-15T22:13:44.606Z,16.35
2022-09-15T22:16:14.497Z,16.32
2022-09-15T22:18:41.725Z,16.31
2022-09-15T22:21:15.999Z,16.34
2022-09-15T22:23:44.231Z,16.37
2022-09-15T22:26:13.462Z,16.35
2022-09-15T22:28:40.131Z,16.36
2022-09-15T22:31:08.905Z,16.41
2022-09-15T22:33:36.119Z,16.44
2022-09-15T22:36:03.289Z,16.39
2022-09-15T22:38:30.632Z,16.40
2022-09-15T22:41:04.518Z,16.40
2022-09-15T22:43:31.169Z,16.35
2022-09-15T22:45:57.821Z,16.33
2022-09-15T22:48:24.502Z,16.33
2022-09-15T22:50:51.095Z,16.34
2022-09-15T22:53:17.810Z,16.32
2022-09-15T22:55:44.641Z,16.26
2022-09-15T22:58:11.474Z,16.28
2022-09-15T23:00:38.793Z,16.28
2022-09-15T23:03:06.629Z,16.32
2022-09-15T23:05:34.516Z,16.29
2022-09-15T23:08:01.391Z,16.21
2022-09-15T23:10:28.448Z,16.33
2022-09-15T23:12:55.117Z,16.32
2022-09-15T23:15:21.712Z,16.28
2022-09-15T23:17:48.356Z,16.28
2022-09-15T23:20:15.227Z,16.28
2022-09-15T23:22:41.904Z,16.27
2022-09-15T23:25:08.937Z,16.25
2022-09-15T23:27:37.819Z,16.27
2022-09-15T23:30:05.172Z,16.28
2022-09-15T23:32:31.853Z,16.30
2022-09-15T23:34:58.442Z,16.29
2022-09-15T23:37:25.057Z,16.31
2022-09-15T23:39:52.347Z,16.28
2022-09-15T23:42:19.256Z,16.27
2022-09-15T23:44:46.214Z,16.27
2022-09-15T23:47:12.817Z,16.27
2022-09-15T23:49:39.533Z,16.24
2022-09-15T23:52:06.171Z,16.23
2022-09-15T23:54:32.827Z,16.28
2022-09-15T23:56:59.510Z,16.32
2022-09-15T23:59:26.220Z,16.28
